sensor_id;sensor_type;location;lat;lon;timestamp;pressure;altitude;pressure_sealevel;temperature;humidity
21096;BME280;10706;49.036;12.112;2022-10-16T00:02:01;97729.03;;;13.67;100.00
21096;BME280;10706;49.036;12.112;2022-10-16T00:04:27;97728.75;;;13.68;100.00
21096;BME280;10706;49.036;12.112;2022-10-16T00:06:53;97729.59;;;13.69;100.00
21096;BME280;10706;49.036;12.112;2022-10-16T00:09:19;97723.41;;;13.68;100.00
21096;BME280;10706;49.036;12.112;2022-10-16T00:11:45;97737.94;;;13.72;100.00
21096;BME280;10706;49.036;12.112;2022-10-16T00:14:14;97724.53;;;13.72;100.00
21096;BME280;10706;49.036;12.112;2022-10-16T00:16:40;97720.53;;;13.75;100.00
21096;BME280;10706;49.036;12.112;2022-10-16T00:19:06;97733.69;;;13.76;100.00
21096;BME280;10706;49.036;12.112;2022-10-16T00:21:33;97740.94;;;13.76;100.00
21096;BME280;10706;49.036;12.112;2022-10-16T00:24:04;97733.94;;;13.75;100.00
21096;BME280;10706;49.036;12.112;2022-10-16T00:26:35;97733.44;;;13.78;100.00
21096;BME280;10706;49.036;12.112;2022-10-16T00:29:01;97741.50;;;13.78;100.00
21096;BME280;10706;49.036;12.112;2022-10-16T00:31:28;97734.41;;;13.99;100.00
21096;BME280;10706;49.036;12.112;2022-10-16T00:33:54;97731.59;;;13.84;100.00
21096;BME280;10706;49.036;12.112;2022-10-16T00:36:22;97732.06;;;13.75;100.00
21096;BME280;10706;49.036;12.112;2022-10-16T00:38:54;97740.34;;;13.74;100.00
21096;BME280;10706;49.036;12.112;2022-10-16T00:41:21;97736.06;;;13.73;100.00
21096;BME280;10706;49.036;12.112;2022-10-16T00:43:55;97736.13;;;13.78;100.00
21096;BME280;10706;49.036;12.112;2022-10-16T00:46:35;97716.28;;;13.84;100.00
21096;BME280;10706;49.036;12.112;2022-10-16T00:49:10;97722.16;;;13.81;100.00
21096;BME280;10706;49.036;12.112;2022-10-16T00:51:46;97726.97;;;13.79;100.00
21096;BME280;10706;49.036;12.112;2022-10-16T00:54:32;97730.69;;;13.73;100.00
21096;BME280;10706;49.036;12.112;2022-10-16T00:57:01;97728.00;;;13.73;100.00
21096;BME280;10706;49.036;12.112;2022-10-16T00:59:40;97723.19;;;13.75;100.00
21096;BME280;10706;49.036;12.112;2022-10-16T01:02:10;97728.31;;;13.76;100.00
21096;BME280;10706;49.036;12.112;2022-10-16T01:04:56;97732.84;;;13.71;100.00
21096;BME280;10706;49.036;12.112;2022-10-16T01:10:57;97731.97;;;13.65;100.00
21096;BME280;10706;49.036;12.112;2022-10-16T01:13:33;97731.44;;;13.63;100.00
21096;BME280;10706;49.036;12.112;2022-10-16T01:16:12;97721.19;;;13.60;100.00
21096;BME280;10706;49.036;12.112;2022-10-16T01:18:49;97733.81;;;13.59;100.00
21096;BME280;10706;49.036;12.112;2022-10-16T01:21:28;97734.84;;;13.58;100.00
21096;BME280;10706;49.036;12.112;2022-10-16T01:27:25;97745.28;;;13.55;100.00
21096;BME280;10706;49.036;12.112;2022-10-16T01:30:12;97753.09;;;13.56;100.00
21096;BME280;10706;49.036;12.112;2022-10-16T01:32:55;97753.59;;;13.53;100.00
21096;BME280;10706;49.036;12.112;2022-10-16T01:38:21;97767.53;;;13.50;100.00
21096;BME280;10706;49.036;12.112;2022-10-16T01:40:56;97777.16;;;13.51;100.00
21096;BME280;10706;49.036;12.112;2022-10-16T01:43:41;97770.19;;;13.50;100.00
21096;BME280;10706;49.036;12.112;2022-10-16T01:46:10;97774.25;;;13.53;100.00
21096;BME280;10706;49.036;12.112;2022-10-16T01:48:38;97764.91;;;13.55;100.00
21096;BME280;10706;49.036;12.112;2022-10-16T01:51:13;97770.75;;;13.52;100.00
21096;BME280;10706;49.036;12.112;2022-10-16T01:53:42;97778.25;;;13.50;100.00
21096;BME280;10706;49.036;12.112;2022-10-16T01:56:12;97778.50;;;13.49;100.00
21096;BME280;10706;49.036;12.112;2022-10-16T01:58:49;97773.94;;;13.49;100.00
21096;BME280;10706;49.036;12.112;2022-10-16T02:01:19;97774.22;;;13.48;100.00
21096;BME280;10706;49.036;12.112;2022-10-16T02:03:51;97772.56;;;13.47;100.00
21096;BME280;10706;49.036;12.112;2022-10-16T02:06:19;97773.63;;;13.46;100.00
21096;BME280;10706;49.036;12.112;2022-10-16T02:08:45;97774.94;;;13.43;100.00
21096;BME280;10706;49.036;12.112;2022-10-16T02:11:11;97778.72;;;13.42;100.00
21096;BME280;10706;49.036;12.112;2022-10-16T02:13:48;97777.88;;;13.41;100.00
21096;BME280;10706;49.036;12.112;2022-10-16T02:16:16;97784.06;;;13.42;100.00
21096;BME280;10706;49.036;12.112;2022-10-16T02:18:43;97782.44;;;13.41;100.00
21096;BME280;10706;49.036;12.112;2022-10-16T02:21:25;97775.44;;;13.40;100.00
21096;BME280;10706;49.036;12.112;2022-10-16T02:27:27;97777.09;;;13.41;100.00
21096;BME280;10706;49.036;12.112;2022-10-16T02:30:10;97775.97;;;13.37;100.00
21096;BME280;10706;49.036;12.112;2022-10-16T02:32:41;97771.41;;;13.37;100.00
21096;BME280;10706;49.036;12.112;2022-10-16T02:35:09;97769.81;;;13.36;100.00
21096;BME280;10706;49.036;12.112;2022-10-16T02:37:36;97765.75;;;13.34;100.00
21096;BME280;10706;49.036;12.112;2022-10-16T02:40:05;97766.91;;;13.43;100.00
21096;BME280;10706;49.036;12.112;2022-10-16T02:42:39;97773.53;;;13.35;100.00
21096;BME280;10706;49.036;12.112;2022-10-16T02:45:08;97779.38;;;13.32;100.00
21096;BME280;10706;49.036;12.112;2022-10-16T02:47:34;97790.94;;;13.33;100.00
21096;BME280;10706;49.036;12.112;2022-10-16T02:50:01;97794.19;;;13.35;100.00
21096;BME280;10706;49.036;12.112;2022-10-16T02:52:26;97783.47;;;13.35;100.00
21096;BME280;10706;49.036;12.112;2022-10-16T02:54:52;97792.31;;;13.35;100.00
21096;BME280;10706;49.036;12.112;2022-10-16T02:57:18;97792.56;;;13.34;100.00
21096;BME280;10706;49.036;12.112;2022-10-16T02:59:44;97800.03;;;13.32;100.00
21096;BME280;10706;49.036;12.112;2022-10-16T03:02:11;97800.03;;;13.32;100.00
21096;BME280;10706;49.036;12.112;2022-10-16T03:04:37;97789.88;;;13.34;100.00
21096;BME280;10706;49.036;12.112;2022-10-16T03:07:03;97793.34;;;13.34;100.00
21096;BME280;10706;49.036;12.112;2022-10-16T03:09:29;97778.91;;;13.35;100.00
21096;BME280;10706;49.036;12.112;2022-10-16T03:11:55;97770.06;;;13.35;100.00
21096;BME280;10706;49.036;12.112;2022-10-16T03:14:21;97784.50;;;13.34;100.00
21096;BME280;10706;49.036;12.112;2022-10-16T03:16:47;97797.91;;;13.34;100.00
21096;BME280;10706;49.036;12.112;2022-10-16T03:19:12;97794.75;;;13.37;100.00
21096;BME280;10706;49.036;12.112;2022-10-16T03:21:38;97797.75;;;13.40;100.00
21096;BME280;10706;49.036;12.112;2022-10-16T03:24:04;97787.56;;;13.43;100.00
21096;BME280;10706;49.036;12.112;2022-10-16T03:26:30;97801.78;;;13.43;100.00
21096;BME280;10706;49.036;12.112;2022-10-16T03:28:56;97804.16;;;13.39;100.00
21096;BME280;10706;49.036;12.112;2022-10-16T03:31:22;97805.72;;;13.35;100.00
21096;BME280;10706;49.036;12.112;2022-10-16T03:33:47;97798.16;;;13.32;100.00
21096;BME280;10706;49.036;12.112;2022-10-16T03:36:13;97801.41;;;13.34;100.00
21096;BME280;10706;49.036;12.112;2022-10-16T03:38:39;97806.28;;;13.37;100.00
21096;BME280;10706;49.036;12.112;2022-10-16T03:41:05;97808.72;;;13.39;100.00
21096;BME280;10706;49.036;12.112;2022-10-16T03:43:33;97804.69;;;13.41;100.00
21096;BME280;10706;49.036;12.112;2022-10-16T03:45:59;97803.66;;;13.43;100.00
21096;BME280;10706;49.036;12.112;2022-10-16T03:48:25;97815.25;;;13.48;100.00
21096;BME280;10706;49.036;12.112;2022-10-16T03:50:51;97807.13;;;13.43;100.00
21096;BME280;10706;49.036;12.112;2022-10-16T03:53:17;97808.50;;;13.46;100.00
21096;BME280;10706;49.036;12.112;2022-10-16T03:55:43;97811.94;;;13.41;100.00
21096;BME280;10706;49.036;12.112;2022-10-16T03:58:10;97810.31;;;13.40;100.00
21096;BME280;10706;49.036;12.112;2022-10-16T04:00:40;97795.25;;;13.34;100.00
21096;BME280;10706;49.036;12.112;2022-10-16T04:03:06;97787.44;;;13.32;100.00
21096;BME280;10706;49.036;12.112;2022-10-16T04:05:31;97784.41;;;13.29;100.00
21096;BME280;10706;49.036;12.112;2022-10-16T04:07:57;97784.31;;;13.18;100.00
21096;BME280;10706;49.036;12.112;2022-10-16T04:10:23;97791.81;;;13.16;100.00
21096;BME280;10706;49.036;12.112;2022-10-16T04:12:49;97805.69;;;13.13;100.00
21096;BME280;10706;49.036;12.112;2022-10-16T04:15:14;97812.63;;;13.09;100.00
21096;BME280;10706;49.036;12.112;2022-10-16T04:17:40;97812.00;;;13.02;100.00
21096;BME280;10706;49.036;12.112;2022-10-16T04:20:06;97818.66;;;12.99;100.00
21096;BME280;10706;49.036;12.112;2022-10-16T04:22:32;97819.31;;;13.07;100.00
21096;BME280;10706;49.036;12.112;2022-10-16T04:24:58;97817.41;;;13.07;100.00
21096;BME280;10706;49.036;12.112;2022-10-16T04:27:24;97827.91;;;13.09;100.00
21096;BME280;10706;49.036;12.112;2022-10-16T04:29:50;97834.63;;;13.11;100.00
21096;BME280;10706;49.036;12.112;2022-10-16T04:32:16;97844.31;;;13.12;100.00
21096;BME280;10706;49.036;12.112;2022-10-16T04:34:41;97845.66;;;13.15;100.00
21096;BME280;10706;49.036;12.112;2022-10-16T04:37:07;97833.91;;;13.16;100.00
21096;BME280;10706;49.036;12.112;2022-10-16T04:39:33;97836.31;;;13.17;100.00
21096;BME280;10706;49.036;12.112;2022-10-16T04:41:59;97832.56;;;13.18;100.00
21096;BME280;10706;49.036;12.112;2022-10-16T04:44:25;97838.19;;;13.17;100.00
21096;BME280;10706;49.036;12.112;2022-10-16T04:46:51;97836.06;;;13.19;100.00
21096;BME280;10706;49.036;12.112;2022-10-16T04:49:17;97846.78;;;13.19;100.00
21096;BME280;10706;49.036;12.112;2022-10-16T04:51:43;97845.41;;;13.16;100.00
21096;BME280;10706;49.036;12.112;2022-10-16T04:54:09;97848.09;;;13.16;100.00
21096;BME280;10706;49.036;12.112;2022-10-16T04:56:35;97831.78;;;13.18;100.00
21096;BME280;10706;49.036;12.112;2022-10-16T04:59:09;97834.13;;;13.14;100.00
21096;BME280;10706;49.036;12.112;2022-10-16T05:01:35;97839.63;;;13.25;100.00
21096;BME280;10706;49.036;12.112;2022-10-16T05:04:01;97833.06;;;13.15;100.00
21096;BME280;10706;49.036;12.112;2022-10-16T05:06:27;97834.38;;;13.13;100.00
21096;BME280;10706;49.036;12.112;2022-10-16T05:08:53;97841.22;;;13.03;100.00
21096;BME280;10706;49.036;12.112;2022-10-16T05:11:18;97846.59;;;13.03;100.00
21096;BME280;10706;49.036;12.112;2022-10-16T05:13:44;97851.94;;;13.03;100.00
21096;BME280;10706;49.036;12.112;2022-10-16T05:16:10;97858.69;;;13.06;100.00
21096;BME280;10706;49.036;12.112;2022-10-16T05:18:35;97849.50;;;13.02;100.00
21096;BME280;10706;49.036;12.112;2022-10-16T05:21:01;97848.50;;;13.08;100.00
21096;BME280;10706;49.036;12.112;2022-10-16T05:23:27;97849.22;;;13.20;100.00
21096;BME280;10706;49.036;12.112;2022-10-16T05:25:55;97848.28;;;13.10;100.00
21096;BME280;10706;49.036;12.112;2022-10-16T05:28:21;97853.06;;;13.08;100.00
21096;BME280;10706;49.036;12.112;2022-10-16T05:30:47;97861.03;;;13.02;100.00
21096;BME280;10706;49.036;12.112;2022-10-16T05:33:12;97858.13;;;13.04;100.00
21096;BME280;10706;49.036;12.112;2022-10-16T05:35:38;97867.47;;;13.01;100.00
21096;BME280;10706;49.036;12.112;2022-10-16T05:38:04;97854.88;;;13.02;100.00
21096;BME280;10706;49.036;12.112;2022-10-16T05:40:30;97858.69;;;13.06;100.00
21096;BME280;10706;49.036;12.112;2022-10-16T05:42:56;97860.56;;;13.06;100.00
21096;BME280;10706;49.036;12.112;2022-10-16T05:45:21;97847.41;;;13.04;100.00
21096;BME280;10706;49.036;12.112;2022-10-16T05:47:47;97825.56;;;13.17;100.00
21096;BME280;10706;49.036;12.112;2022-10-16T05:50:13;97825.28;;;13.14;100.00
21096;BME280;10706;49.036;12.112;2022-10-16T05:52:39;97816.13;;;13.32;100.00
21096;BME280;10706;49.036;12.112;2022-10-16T05:55:05;97816.13;;;13.32;100.00
21096;BME280;10706;49.036;12.112;2022-10-16T05:57:31;97829.97;;;13.23;100.00
21096;BME280;10706;49.036;12.112;2022-10-16T05:59:57;97829.81;;;13.13;100.00
21096;BME280;10706;49.036;12.112;2022-10-16T06:02:23;97835.69;;;13.10;100.00
21096;BME280;10706;49.036;12.112;2022-10-16T06:04:48;97841.38;;;13.14;100.00
21096;BME280;10706;49.036;12.112;2022-10-16T06:07:14;97850.72;;;13.11;100.00
21096;BME280;10706;49.036;12.112;2022-10-16T06:09:40;97849.03;;;13.05;100.00
21096;BME280;10706;49.036;12.112;2022-10-16T06:12:05;97860.25;;;13.02;100.00
21096;BME280;10706;49.036;12.112;2022-10-16T06:14:31;97859.44;;;13.01;100.00
21096;BME280;10706;49.036;12.112;2022-10-16T06:16:57;97860.44;;;12.95;100.00
21096;BME280;10706;49.036;12.112;2022-10-16T06:19:23;97862.03;;;12.96;100.00
21096;BME280;10706;49.036;12.112;2022-10-16T06:21:49;97870.56;;;13.10;100.00
21096;BME280;10706;49.036;12.112;2022-10-16T06:24:14;97865.00;;;13.17;100.00
21096;BME280;10706;49.036;12.112;2022-10-16T06:26:40;97869.31;;;13.18;100.00
21096;BME280;10706;49.036;12.112;2022-10-16T06:29:06;97885.88;;;13.15;100.00
21096;BME280;10706;49.036;12.112;2022-10-16T06:31:32;97892.88;;;13.16;100.00
21096;BME280;10706;49.036;12.112;2022-10-16T06:33:59;97883.03;;;13.21;100.00
21096;BME280;10706;49.036;12.112;2022-10-16T06:36:25;97902.13;;;13.25;100.00
21096;BME280;10706;49.036;12.112;2022-10-16T06:38:51;97909.09;;;13.26;100.00
21096;BME280;10706;49.036;12.112;2022-10-16T06:41:21;97910.97;;;13.26;100.00
21096;BME280;10706;49.036;12.112;2022-10-16T06:43:47;97918.78;;;13.27;100.00
21096;BME280;10706;49.036;12.112;2022-10-16T06:46:19;97920.56;;;13.21;100.00
21096;BME280;10706;49.036;12.112;2022-10-16T06:48:45;97926.97;;;13.20;100.00
21096;BME280;10706;49.036;12.112;2022-10-16T06:51:17;97929.22;;;13.29;100.00
21096;BME280;10706;49.036;12.112;2022-10-16T06:53:46;97937.22;;;13.23;100.00
21096;BME280;10706;49.036;12.112;2022-10-16T06:56:23;97936.88;;;13.37;100.00
21096;BME280;10706;49.036;12.112;2022-10-16T06:58:50;97939.00;;;13.35;100.00
21096;BME280;10706;49.036;12.112;2022-10-16T07:01:20;97947.88;;;13.57;100.00
21096;BME280;10706;49.036;12.112;2022-10-16T07:03:47;97966.22;;;13.66;100.00
21096;BME280;10706;49.036;12.112;2022-10-16T07:06:19;97965.78;;;13.52;100.00
21096;BME280;10706;49.036;12.112;2022-10-16T07:08:46;97965.72;;;13.47;100.00
21096;BME280;10706;49.036;12.112;2022-10-16T07:11:16;97968.78;;;13.55;100.00
21096;BME280;10706;49.036;12.112;2022-10-16T07:13:43;97971.09;;;13.69;100.00
21096;BME280;10706;49.036;12.112;2022-10-16T07:18:38;97968.72;;;13.72;100.00
21096;BME280;10706;49.036;12.112;2022-10-16T07:21:10;97978.28;;;13.85;100.00
21096;BME280;10706;49.036;12.112;2022-10-16T07:23:37;97985.63;;;13.95;99.52
21096;BME280;10706;49.036;12.112;2022-10-16T07:26:04;97977.63;;;14.00;98.85
21096;BME280;10706;49.036;12.112;2022-10-16T07:28:31;97986.53;;;14.06;98.42
21096;BME280;10706;49.036;12.112;2022-10-16T07:31:11;97986.50;;;14.00;98.52
21096;BME280;10706;49.036;12.112;2022-10-16T07:33:38;97984.72;;;14.11;98.07
21096;BME280;10706;49.036;12.112;2022-10-16T07:36:05;97981.41;;;14.26;98.95
21096;BME280;10706;49.036;12.112;2022-10-16T07:38:30;97980.72;;;14.36;98.09
21096;BME280;10706;49.036;12.112;2022-10-16T07:41:04;97975.19;;;14.48;97.54
21096;BME280;10706;49.036;12.112;2022-10-16T07:43:31;97979.75;;;14.47;96.59
21096;BME280;10706;49.036;12.112;2022-10-16T07:45:57;97979.66;;;14.64;96.91
21096;BME280;10706;49.036;12.112;2022-10-16T07:48:27;97985.47;;;14.88;96.10
21096;BME280;10706;49.036;12.112;2022-10-16T07:51:00;97995.78;;;14.96;95.36
21096;BME280;10706;49.036;12.112;2022-10-16T07:53:27;97991.00;;;15.04;94.93
21096;BME280;10706;49.036;12.112;2022-10-16T07:56:05;97984.78;;;15.03;94.18
21096;BME280;10706;49.036;12.112;2022-10-16T07:58:32;97994.56;;;15.14;93.12
21096;BME280;10706;49.036;12.112;2022-10-16T08:00:58;97997.28;;;15.20;92.11
21096;BME280;10706;49.036;12.112;2022-10-16T08:03:25;97999.19;;;15.19;92.92
21096;BME280;10706;49.036;12.112;2022-10-16T08:05:51;97989.59;;;14.96;92.53
21096;BME280;10706;49.036;12.112;2022-10-16T08:08:18;97995.94;;;15.17;93.10
21096;BME280;10706;49.036;12.112;2022-10-16T08:10:45;97999.59;;;15.43;91.45
21096;BME280;10706;49.036;12.112;2022-10-16T08:13:10;98000.22;;;15.61;90.76
21096;BME280;10706;49.036;12.112;2022-10-16T08:15:36;98005.44;;;15.35;90.20
21096;BME280;10706;49.036;12.112;2022-10-16T08:18:05;98009.31;;;15.49;90.99
21096;BME280;10706;49.036;12.112;2022-10-16T08:20:32;98012.63;;;15.62;91.03
21096;BME280;10706;49.036;12.112;2022-10-16T08:22:59;98022.44;;;15.83;90.83
21096;BME280;10706;49.036;12.112;2022-10-16T08:25:26;98021.75;;;16.13;89.86
21096;BME280;10706;49.036;12.112;2022-10-16T08:27:53;98016.72;;;16.27;88.33
21096;BME280;10706;49.036;12.112;2022-10-16T08:30:21;98023.59;;;16.03;87.14
21096;BME280;10706;49.036;12.112;2022-10-16T08:32:48;98024.41;;;15.98;88.41
21096;BME280;10706;49.036;12.112;2022-10-16T08:35:14;98026.66;;;16.22;88.20
21096;BME280;10706;49.036;12.112;2022-10-16T08:37:41;98022.06;;;16.22;88.41
21096;BME280;10706;49.036;12.112;2022-10-16T08:40:18;98035.56;;;16.27;87.89
21096;BME280;10706;49.036;12.112;2022-10-16T08:43:18;98037.94;;;16.19;87.85
21096;BME280;10706;49.036;12.112;2022-10-16T08:48:47;98025.19;;;15.99;88.40
21096;BME280;10706;49.036;12.112;2022-10-16T08:51:34;98023.53;;;15.82;89.25
21096;BME280;10706;49.036;12.112;2022-10-16T08:54:23;98020.00;;;15.77;89.99
21096;BME280;10706;49.036;12.112;2022-10-16T08:56:55;98016.28;;;15.93;89.86
21096;BME280;10706;49.036;12.112;2022-10-16T08:59:22;98013.63;;;15.98;89.55
21096;BME280;10706;49.036;12.112;2022-10-16T09:01:50;98004.19;;;15.96;89.84
21096;BME280;10706;49.036;12.112;2022-10-16T09:07:32;98016.13;;;16.15;88.87
21096;BME280;10706;49.036;12.112;2022-10-16T09:13:41;98019.38;;;16.22;89.64
21096;BME280;10706;49.036;12.112;2022-10-16T09:16:35;98016.47;;;16.49;87.64
21096;BME280;10706;49.036;12.112;2022-10-16T09:19:20;98020.00;;;16.60;86.45
21096;BME280;10706;49.036;12.112;2022-10-16T09:21:48;98017.66;;;16.89;85.70
21096;BME280;10706;49.036;12.112;2022-10-16T09:24:18;98014.41;;;16.98;85.63
21096;BME280;10706;49.036;12.112;2022-10-16T09:26:45;98010.88;;;17.13;84.91
21096;BME280;10706;49.036;12.112;2022-10-16T09:29:16;98016.81;;;17.40;83.72
21096;BME280;10706;49.036;12.112;2022-10-16T09:31:43;98014.06;;;17.61;82.58
21096;BME280;10706;49.036;12.112;2022-10-16T09:34:32;98017.03;;;17.64;82.66
21096;BME280;10706;49.036;12.112;2022-10-16T09:37:00;98019.69;;;17.69;81.70
21096;BME280;10706;49.036;12.112;2022-10-16T09:39:28;98024.03;;;17.71;82.47
21096;BME280;10706;49.036;12.112;2022-10-16T09:41:55;98035.34;;;17.78;83.76
21096;BME280;10706;49.036;12.112;2022-10-16T09:44:27;98039.66;;;17.84;82.32
21096;BME280;10706;49.036;12.112;2022-10-16T09:47:16;98050.50;;;17.74;79.22
21096;BME280;10706;49.036;12.112;2022-10-16T09:49:59;98053.44;;;17.77;79.59
21096;BME280;10706;49.036;12.112;2022-10-16T09:52:30;98055.06;;;17.78;79.63
21096;BME280;10706;49.036;12.112;2022-10-16T09:55:03;98060.44;;;17.88;80.02
21096;BME280;10706;49.036;12.112;2022-10-16T09:57:51;98061.75;;;18.01;79.49
21096;BME280;10706;49.036;12.112;2022-10-16T10:00:18;98060.44;;;18.04;78.89
21096;BME280;10706;49.036;12.112;2022-10-16T10:02:44;98065.00;;;18.03;79.05
21096;BME280;10706;49.036;12.112;2022-10-16T10:05:37;98063.16;;;17.94;79.66
21096;BME280;10706;49.036;12.112;2022-10-16T10:08:04;98064.47;;;18.06;78.53
21096;BME280;10706;49.036;12.112;2022-10-16T10:10:42;98066.84;;;18.18;78.95
21096;BME280;10706;49.036;12.112;2022-10-16T10:13:19;98066.81;;;18.29;77.90
21096;BME280;10706;49.036;12.112;2022-10-16T10:15:45;98062.47;;;18.27;77.79
21096;BME280;10706;49.036;12.112;2022-10-16T10:18:21;98070.66;;;18.17;79.06
21096;BME280;10706;49.036;12.112;2022-10-16T10:21:00;98071.09;;;18.35;78.12
21096;BME280;10706;49.036;12.112;2022-10-16T10:23:28;98072.25;;;18.18;77.68
21096;BME280;10706;49.036;12.112;2022-10-16T10:31:21;98056.00;;;18.23;78.30
21096;BME280;10706;49.036;12.112;2022-10-16T10:34:18;98052.19;;;18.35;78.71
21096;BME280;10706;49.036;12.112;2022-10-16T10:36:55;98058.09;;;18.42;78.28
21096;BME280;10706;49.036;12.112;2022-10-16T10:39:43;98050.25;;;18.40;77.49
21096;BME280;10706;49.036;12.112;2022-10-16T10:42:39;98056.06;;;18.63;78.35
21096;BME280;10706;49.036;12.112;2022-10-16T10:45:27;98046.53;;;18.81;77.00
21096;BME280;10706;49.036;12.112;2022-10-16T10:48:17;98054.22;;;19.03;75.81
21096;BME280;10706;49.036;12.112;2022-10-16T10:51:04;98068.06;;;18.96;74.50
21096;BME280;10706;49.036;12.112;2022-10-16T10:57:02;98063.63;;;19.45;73.52
21096;BME280;10706;49.036;12.112;2022-10-16T11:05:50;98049.81;;;20.00;72.33
21096;BME280;10706;49.036;12.112;2022-10-16T11:08:42;98050.44;;;19.62;73.64
21096;BME280;10706;49.036;12.112;2022-10-16T11:11:30;98047.72;;;19.62;72.43
21096;BME280;10706;49.036;12.112;2022-10-16T11:14:20;98044.78;;;19.59;74.18
21096;BME280;10706;49.036;12.112;2022-10-16T11:17:26;98040.59;;;19.77;72.13
21096;BME280;10706;49.036;12.112;2022-10-16T11:20:02;98045.53;;;19.94;71.23
21096;BME280;10706;49.036;12.112;2022-10-16T11:22:47;98046.25;;;19.80;72.32
21096;BME280;10706;49.036;12.112;2022-10-16T11:25:23;98051.47;;;19.96;70.69
21096;BME280;10706;49.036;12.112;2022-10-16T11:28:10;98051.56;;;20.34;70.33
21096;BME280;10706;49.036;12.112;2022-10-16T11:31:02;98049.59;;;20.58;70.09
21096;BME280;10706;49.036;12.112;2022-10-16T11:33:47;98045.22;;;21.01;68.85
21096;BME280;10706;49.036;12.112;2022-10-16T11:39:20;98046.97;;;21.10;67.76
21096;BME280;10706;49.036;12.112;2022-10-16T11:44:20;98041.97;;;21.17;68.88
21096;BME280;10706;49.036;12.112;2022-10-16T11:47:24;98042.25;;;21.16;68.39
21096;BME280;10706;49.036;12.112;2022-10-16T11:49:57;98035.69;;;21.17;67.15
21096;BME280;10706;49.036;12.112;2022-10-16T11:52:40;98030.22;;;21.69;65.82
21096;BME280;10706;49.036;12.112;2022-10-16T11:55:19;98024.34;;;21.48;67.06
21096;BME280;10706;49.036;12.112;2022-10-16T11:57:51;98029.69;;;21.20;69.06
21096;BME280;10706;49.036;12.112;2022-10-16T12:00:27;98026.47;;;21.18;68.77
21096;BME280;10706;49.036;12.112;2022-10-16T12:08:49;98028.28;;;22.25;64.87
21096;BME280;10706;49.036;12.112;2022-10-16T12:11:37;98033.47;;;22.99;63.99
21096;BME280;10706;49.036;12.112;2022-10-16T12:16:32;98022.03;;;24.14;59.32
21096;BME280;10706;49.036;12.112;2022-10-16T12:19:15;98015.41;;;24.63;57.73
21096;BME280;10706;49.036;12.112;2022-10-16T12:21:42;98012.63;;;24.37;56.24
21096;BME280;10706;49.036;12.112;2022-10-16T12:24:37;98015.50;;;24.32;56.32
21096;BME280;10706;49.036;12.112;2022-10-16T12:27:06;98014.03;;;24.26;56.58
21096;BME280;10706;49.036;12.112;2022-10-16T12:29:40;98013.31;;;25.04;54.08
21096;BME280;10706;49.036;12.112;2022-10-16T12:32:37;98019.44;;;25.66;53.00
21096;BME280;10706;49.036;12.112;2022-10-16T12:35:16;98008.59;;;26.16;51.89
21096;BME280;10706;49.036;12.112;2022-10-16T12:37:44;98015.41;;;25.72;52.24
21096;BME280;10706;49.036;12.112;2022-10-16T12:40:44;98018.38;;;25.96;52.36
21096;BME280;10706;49.036;12.112;2022-10-16T12:43:36;98008.78;;;24.91;54.13
21096;BME280;10706;49.036;12.112;2022-10-16T12:51:42;98015.31;;;24.29;56.29
21096;BME280;10706;49.036;12.112;2022-10-16T12:54:34;98014.91;;;23.86;57.52
21096;BME280;10706;49.036;12.112;2022-10-16T13:09:50;98035.66;;;22.97;62.02
21096;BME280;10706;49.036;12.112;2022-10-16T13:28:11;98039.94;;;24.46;56.00
21096;BME280;10706;49.036;12.112;2022-10-16T13:30:27;98031.94;;;24.84;55.73
21096;BME280;10706;49.036;12.112;2022-10-16T13:35:54;98028.16;;;24.19;55.41
21096;BME280;10706;49.036;12.112;2022-10-16T13:38:32;98039.72;;;24.25;56.95
21096;BME280;10706;49.036;12.112;2022-10-16T13:41:04;98032.81;;;24.19;57.77
21096;BME280;10706;49.036;12.112;2022-10-16T13:43:43;98037.22;;;24.46;56.96
21096;BME280;10706;49.036;12.112;2022-10-16T13:46:19;98038.75;;;24.21;57.88
21096;BME280;10706;49.036;12.112;2022-10-16T13:49:00;98039.91;;;24.37;56.54
21096;BME280;10706;49.036;12.112;2022-10-16T13:51:27;98044.31;;;24.73;57.00
21096;BME280;10706;49.036;12.112;2022-10-16T13:53:56;98047.22;;;24.77;55.84
21096;BME280;10706;49.036;12.112;2022-10-16T13:56:29;98050.66;;;24.34;57.42
21096;BME280;10706;49.036;12.112;2022-10-16T13:59:04;98050.69;;;24.51;57.90
21096;BME280;10706;49.036;12.112;2022-10-16T14:01:34;98047.41;;;24.23;58.53
21096;BME280;10706;49.036;12.112;2022-10-16T14:04:11;98059.88;;;23.98;59.01
21096;BME280;10706;49.036;12.112;2022-10-16T14:06:48;98065.56;;;23.79;59.27
21096;BME280;10706;49.036;12.112;2022-10-16T14:09:29;98064.44;;;23.48;60.13
21096;BME280;10706;49.036;12.112;2022-10-16T14:12:07;98062.41;;;23.32;60.32
21096;BME280;10706;49.036;12.112;2022-10-16T14:14:48;98070.59;;;22.59;63.07
21096;BME280;10706;49.036;12.112;2022-10-16T14:17:23;98070.00;;;22.20;64.37
21096;BME280;10706;49.036;12.112;2022-10-16T14:19:52;98071.00;;;22.10;64.74
21096;BME280;10706;49.036;12.112;2022-10-16T14:22:40;98074.50;;;21.69;66.84
21096;BME280;10706;49.036;12.112;2022-10-16T14:25:25;98060.75;;;21.47;68.04
21096;BME280;10706;49.036;12.112;2022-10-16T14:28:16;98065.41;;;21.46;68.65
21096;BME280;10706;49.036;12.112;2022-10-16T14:31:00;98054.53;;;21.13;69.03
21096;BME280;10706;49.036;12.112;2022-10-16T14:36:15;98057.13;;;20.67;71.61
21096;BME280;10706;49.036;12.112;2022-10-16T14:39:05;98061.06;;;20.55;73.11
21096;BME280;10706;49.036;12.112;2022-10-16T14:41:46;98066.59;;;20.45;73.22
21096;BME280;10706;49.036;12.112;2022-10-16T14:44:13;98063.75;;;20.36;73.98